createdAt,value
2019-04-22T00:02:26.491Z,40.20
2019-04-22T00:05:07.261Z,40.50
2019-04-22T00:08:00.429Z,40.00
2019-04-22T00:10:26.495Z,40.60
2019-04-22T00:13:01.310Z,41.50
2019-04-22T00:15:28.015Z,41.50
2019-04-22T00:18:07.477Z,41.80
2019-04-22T00:20:35.384Z,43.90
2019-04-22T00:23:03.392Z,42.10
2019-04-22T00:25:42.148Z,43.20
2019-04-22T00:28:12.765Z,41.00
2019-04-22T00:30:41.930Z,41.80
2019-04-22T00:33:07.988Z,40.90
2019-04-22T00:35:41.614Z,40.90
2019-04-22T00:38:20.345Z,41.60
2019-04-22T00:43:21.227Z,40.90
2019-04-22T00:45:54.311Z,42.10
2019-04-22T00:48:27.348Z,42.20
2019-04-22T00:51:01.623Z,41.10
2019-04-22T00:53:30.070Z,41.20
2019-04-22T00:56:11.350Z,40.90
2019-04-22T00:58:40.765Z,41.20
2019-04-22T01:03:50.432Z,41.20
2019-04-22T01:06:21.512Z,40.70
2019-04-22T01:09:00.318Z,40.80
2019-04-22T01:11:22.742Z,41.10
2019-04-22T01:13:49.573Z,41.40
2019-04-22T01:16:24.998Z,40.70
2019-04-22T01:18:55.223Z,41.30
2019-04-22T01:21:28.998Z,41.10
2019-04-22T01:23:57.608Z,42.50
2019-04-22T01:26:25.268Z,40.90
2019-04-22T01:28:53.653Z,41.10
2019-04-22T01:31:19.693Z,42.10
2019-04-22T01:33:58.550Z,41.80
2019-04-22T01:36:35.224Z,41.10
2019-04-22T01:39:13.784Z,41.60
2019-04-22T01:44:29.127Z,41.40
2019-04-22T01:47:08.162Z,41.60
2019-04-22T01:49:21.377Z,40.90
2019-04-22T01:54:29.841Z,40.80
2019-04-22T01:56:55.783Z,40.90
2019-04-22T01:59:16.856Z,40.60
2019-04-22T02:01:55.044Z,40.60
2019-04-22T02:04:33.676Z,40.50
2019-04-22T02:06:59.827Z,41.00
2019-04-22T02:09:38.108Z,41.00
2019-04-22T02:14:33.017Z,41.30
2019-04-22T02:19:43.421Z,41.70
2019-04-22T02:22:11.593Z,40.80
2019-04-22T02:24:39.864Z,41.50
2019-04-22T02:27:14.079Z,42.10
2019-04-22T02:29:44.361Z,41.40
2019-04-22T02:37:18.586Z,42.50
2019-04-22T02:39:47.227Z,41.70
2019-04-22T02:44:53.715Z,41.60
2019-04-22T02:47:20.888Z,42.10
2019-04-22T02:50:00.829Z,41.00
2019-04-22T02:55:01.449Z,41.70
2019-04-22T03:00:10.172Z,41.40
2019-04-22T03:02:46.141Z,41.30
2019-04-22T03:07:38.091Z,41.00
2019-04-22T03:10:18.758Z,41.00
2019-04-22T03:12:48.981Z,40.90
2019-04-22T03:15:11.637Z,41.40
2019-04-22T03:17:52.031Z,40.60
2019-04-22T03:20:22.192Z,41.20
2019-04-22T03:22:59.975Z,41.20
2019-04-22T03:28:10.335Z,40.60
2019-04-22T03:30:50.693Z,41.00
2019-04-22T03:33:11.988Z,40.30
2019-04-22T03:37:56.055Z,40.30
2019-04-22T03:40:36.889Z,40.40
2019-04-22T03:48:07.171Z,40.00
2019-04-22T03:50:59.362Z,40.00
2019-04-22T03:55:46.692Z,40.10
2019-04-22T03:58:01.134Z,39.40
2019-04-22T04:00:50.120Z,39.60
2019-04-22T04:03:15.067Z,39.60
2019-04-22T04:08:33.562Z,38.80
2019-04-22T04:10:48.398Z,38.90
2019-04-22T04:15:47.993Z,38.70
2019-04-22T04:18:21.230Z,38.40
2019-04-22T04:23:35.130Z,38.10
2019-04-22T04:25:52.044Z,37.90
2019-04-22T04:30:59.835Z,37.50
2019-04-22T04:33:54.170Z,37.40
2019-04-22T04:38:48.069Z,37.20
2019-04-22T04:43:50.173Z,36.80
2019-04-22T04:46:16.571Z,37.00
2019-04-22T04:51:25.762Z,36.70
2019-04-22T04:53:47.528Z,36.40
2019-04-22T04:56:22.815Z,36.30
2019-04-22T05:01:25.160Z,36.30
2019-04-22T05:06:21.636Z,36.00
2019-04-22T05:11:24.767Z,35.80
2019-04-22T05:13:59.200Z,35.70
2019-04-22T05:24:06.670Z,35.20
2019-04-22T05:26:31.242Z,35.20
2019-04-22T05:28:57.608Z,34.90
2019-04-22T05:31:33.988Z,34.80
2019-04-22T05:34:04.470Z,34.20
2019-04-22T05:36:32.787Z,33.90
2019-04-22T05:41:39.562Z,33.60
2019-04-22T05:44:02.915Z,33.30
2019-04-22T05:46:34.511Z,32.70
2019-04-22T05:49:13.460Z,32.70
2019-04-22T05:51:42.401Z,32.60
2019-04-22T06:01:52.194Z,31.90
2019-04-22T06:04:15.060Z,31.60
2019-04-22T06:06:46.860Z,31.40
2019-04-22T06:09:24.907Z,31.50
2019-04-22T06:11:45.947Z,31.00
2019-04-22T06:14:22.981Z,30.90
2019-04-22T06:16:57.142Z,31.20
2019-04-22T06:19:28.218Z,30.80
2019-04-22T06:22:00.867Z,30.90
2019-04-22T06:24:27.985Z,30.90
2019-04-22T06:29:30.163Z,30.10
2019-04-22T06:34:35.759Z,29.40
2019-04-22T06:39:39.706Z,29.60
2019-04-22T06:44:50.053Z,29.20
2019-04-22T06:47:21.092Z,29.00
2019-04-22T06:49:41.487Z,28.50
2019-04-22T06:54:49.034Z,27.70
2019-04-22T06:57:23.926Z,27.20
2019-04-22T06:59:53.768Z,27.20
2019-04-22T07:02:29.983Z,26.50
2019-04-22T07:04:53.811Z,25.60
2019-04-22T07:07:25.179Z,25.90
2019-04-22T07:09:54.320Z,26.40
2019-04-22T07:12:24.348Z,26.30
2019-04-22T07:17:31.049Z,25.10
2019-04-22T07:19:59.467Z,25.10
2019-04-22T07:22:38.953Z,25.30
2019-04-22T07:27:34.566Z,24.40
2019-04-22T07:30:09.299Z,25.10
2019-04-22T07:33:01.000Z,25.10
2019-04-22T07:35:08.478Z,25.00
2019-04-22T07:37:41.845Z,24.80
2019-04-22T07:40:14.072Z,24.90
2019-04-22T07:42:42.653Z,24.50
2019-04-22T07:45:09.928Z,24.60
2019-04-22T07:47:44.659Z,23.80
2019-04-22T07:50:26.740Z,23.80
2019-04-22T07:52:44.963Z,22.60
2019-04-22T07:55:11.673Z,23.70
2019-04-22T07:58:08.267Z,23.30
2019-04-22T08:00:27.613Z,23.60
2019-04-22T08:02:59.142Z,22.80
2019-04-22T08:05:25.499Z,23.10
2019-04-22T08:07:59.182Z,23.20
2019-04-22T08:10:35.345Z,22.50
2019-04-22T08:13:01.931Z,22.60
2019-04-22T08:15:28.014Z,22.40
2019-04-22T08:20:33.637Z,21.40
2019-04-22T08:25:38.858Z,21.50
2019-04-22T08:28:11.819Z,21.60
2019-04-22T08:30:42.990Z,22.30
2019-04-22T08:33:15.931Z,21.60
2019-04-22T08:36:00.466Z,21.80
2019-04-22T08:38:14.752Z,21.40
2019-04-22T08:40:58.117Z,20.80
2019-04-22T08:43:36.392Z,21.10
2019-04-22T08:45:57.078Z,21.10
2019-04-22T08:48:32.638Z,20.80
2019-04-22T08:51:00.378Z,20.60
2019-04-22T08:53:45.488Z,20.70
2019-04-22T08:56:14.281Z,20.60
2019-04-22T09:01:14.265Z,19.50
2019-04-22T09:03:39.325Z,20.20
2019-04-22T09:06:19.835Z,20.30
2019-04-22T09:08:42.439Z,19.50
2019-04-22T09:11:20.172Z,19.90
2019-04-22T09:13:52.134Z,19.90
2019-04-22T09:16:20.742Z,19.50
2019-04-22T09:18:48.233Z,18.20
2019-04-22T09:23:54.006Z,19.40
2019-04-22T09:26:23.986Z,19.20
2019-04-22T09:31:23.969Z,19.40
2019-04-22T09:33:53.206Z,19.40
2019-04-22T09:36:29.537Z,18.20
2019-04-22T09:38:55.396Z,18.50
2019-04-22T09:41:31.785Z,18.70
2019-04-22T09:46:39.140Z,18.90
2019-04-22T09:49:06.495Z,19.10
2019-04-22T09:51:37.188Z,19.40
2019-04-22T09:56:44.521Z,19.10
2019-04-22T09:59:07.598Z,18.50
2019-04-22T10:04:14.150Z,18.50
2019-04-22T10:06:36.667Z,18.60
2019-04-22T10:11:44.620Z,18.10
2019-04-22T10:14:19.085Z,18.90
2019-04-22T10:16:50.659Z,19.10
2019-04-22T10:24:19.086Z,18.90
2019-04-22T10:26:50.569Z,18.90
2019-04-22T10:29:24.634Z,18.40
2019-04-22T10:31:55.549Z,18.70
2019-04-22T10:34:15.699Z,18.60
2019-04-22T10:36:35.480Z,18.50
2019-04-22T10:39:08.446Z,18.80
2019-04-22T10:41:38.909Z,18.60
2019-04-22T10:44:10.918Z,18.80
2019-04-22T10:46:42.410Z,18.30
2019-04-22T10:49:12.711Z,17.40
2019-04-22T10:51:42.437Z,17.60
2019-04-22T10:54:13.430Z,17.80
2019-04-22T10:56:45.139Z,17.70
2019-04-22T10:59:16.327Z,17.40
2019-04-22T11:01:46.504Z,17.30
2019-04-22T11:04:17.446Z,17.90
2019-04-22T11:06:55.331Z,17.30
2019-04-22T11:09:18.639Z,16.60
2019-04-22T11:11:56.587Z,16.60
2019-04-22T11:14:20.991Z,16.20
2019-04-22T11:16:51.627Z,17.00
2019-04-22T11:19:21.649Z,17.90
2019-04-22T11:22:05.084Z,17.50
2019-04-22T11:24:23.051Z,17.90
2019-04-22T11:26:52.858Z,17.30
2019-04-22T11:29:23.773Z,17.40
2019-04-22T11:31:54.700Z,17.30
2019-04-22T11:34:24.919Z,16.50
2019-04-22T11:36:54.997Z,17.00
2019-04-22T11:39:26.287Z,16.80
2019-04-22T11:41:56.049Z,17.00
2019-04-22T11:44:25.721Z,17.10
2019-04-22T11:46:55.467Z,17.00
2019-04-22T11:49:30.057Z,16.20
2019-04-22T11:52:01.021Z,16.80
2019-04-22T11:54:30.869Z,16.80
2019-04-22T11:57:01.097Z,16.70
2019-04-22T11:59:33.032Z,16.10
2019-04-22T12:02:03.073Z,16.30
2019-04-22T12:04:33.893Z,16.80
2019-04-22T12:07:04.270Z,16.90
2019-04-22T12:09:35.487Z,17.10
2019-04-22T12:12:07.677Z,16.30
2019-04-22T12:14:38.255Z,16.80
2019-04-22T12:17:08.102Z,16.30
2019-04-22T12:19:37.949Z,16.10
2019-04-22T12:22:09.041Z,15.70
2019-04-22T12:24:40.447Z,15.50
2019-04-22T12:27:10.561Z,15.50
2019-04-22T12:29:40.719Z,15.00
2019-04-22T12:32:11.539Z,15.30
2019-04-22T12:34:41.797Z,15.10
2019-04-22T12:37:17.401Z,14.90
2019-04-22T12:39:43.479Z,14.20
2019-04-22T12:42:13.245Z,14.40
2019-04-22T12:44:44.097Z,14.30
2019-04-22T12:47:14.913Z,15.00
2019-04-22T12:49:46.928Z,14.90
2019-04-22T12:52:24.473Z,15.60
2019-04-22T12:54:47.154Z,15.30
2019-04-22T12:57:16.898Z,15.00
2019-04-22T12:59:47.966Z,15.20
2019-04-22T13:02:18.791Z,15.00
2019-04-22T13:04:49.884Z,15.10
2019-04-22T13:07:19.957Z,15.60
2019-04-22T13:09:49.640Z,16.10
2019-04-22T13:12:19.393Z,15.80
2019-04-22T13:14:49.124Z,16.20
2019-04-22T13:17:18.993Z,16.10
2019-04-22T13:19:49.874Z,15.80
2019-04-22T13:22:20.990Z,15.30
2019-04-22T13:24:51.994Z,14.90
2019-04-22T13:27:21.665Z,15.10
2019-04-22T13:29:55.161Z,15.40
2019-04-22T13:32:26.893Z,16.00
2019-04-22T13:34:59.936Z,15.50
2019-04-22T13:37:28.585Z,15.50
2019-04-22T13:39:58.972Z,15.60
2019-04-22T13:42:30.126Z,16.10
2019-04-22T13:45:00.224Z,16.30
2019-04-22T13:47:45.832Z,16.30
2019-04-22T13:50:36.058Z,16.00
2019-04-22T13:53:10.693Z,15.90
2019-04-22T13:55:32.901Z,15.60
2019-04-22T13:57:54.035Z,15.90
2019-04-22T14:00:16.325Z,15.60
2019-04-22T14:02:54.781Z,16.20
2019-04-22T14:05:26.915Z,16.40
2019-04-22T14:07:57.560Z,16.00
2019-04-22T14:10:28.082Z,16.10
2019-04-22T14:13:00.138Z,16.60
2019-04-22T14:15:29.850Z,16.30
2019-04-22T14:18:00.970Z,15.90
2019-04-22T14:20:34.363Z,16.40
2019-04-22T14:23:06.004Z,16.60
2019-04-22T14:25:48.461Z,16.60
2019-04-22T14:28:21.147Z,16.70
2019-04-22T14:30:50.597Z,16.50
2019-04-22T14:33:20.480Z,16.00
2019-04-22T14:35:50.143Z,16.40
2019-04-22T14:38:19.889Z,14.60
2019-04-22T14:40:49.922Z,15.00
2019-04-22T14:43:52.701Z,16.40
2019-04-22T14:46:20.350Z,17.10
2019-04-22T14:51:11.905Z,18.30
2019-04-22T14:53:47.274Z,18.20
2019-04-22T14:55:58.179Z,18.20
2019-04-22T14:58:28.819Z,18.30
2019-04-22T15:00:59.146Z,18.40
2019-04-22T15:03:31.438Z,18.30
2019-04-22T15:06:02.305Z,18.40
2019-04-22T15:08:33.002Z,18.50
2019-04-22T15:11:04.489Z,18.20
2019-04-22T15:13:35.530Z,18.00
2019-04-22T15:16:23.766Z,17.80
2019-04-22T15:18:59.896Z,18.10
2019-04-22T15:21:30.189Z,18.80
2019-04-22T15:24:02.438Z,18.90
2019-04-22T15:26:32.741Z,19.00
2019-04-22T15:29:03.152Z,18.90
2019-04-22T15:31:33.254Z,18.50
2019-04-22T15:34:04.577Z,18.50
2019-04-22T15:36:35.791Z,18.50
2019-04-22T15:39:09.325Z,18.70
2019-04-22T15:41:41.092Z,18.80
2019-04-22T15:44:12.044Z,18.90
2019-04-22T15:46:42.639Z,18.80
2019-04-22T15:49:13.795Z,18.30
2019-04-22T15:51:44.754Z,18.50
2019-04-22T15:54:15.929Z,18.60
2019-04-22T15:56:46.542Z,19.20
2019-04-22T15:59:31.184Z,18.30
2019-04-22T16:01:48.616Z,18.50
2019-04-22T16:04:18.889Z,18.70
2019-04-22T16:06:49.387Z,18.90
2019-04-22T16:09:20.470Z,18.80
2019-04-22T16:11:51.774Z,18.80
2019-04-22T16:14:27.988Z,19.00
2019-04-22T16:16:52.856Z,19.20
2019-04-22T16:19:23.249Z,19.40
2019-04-22T16:22:00.669Z,19.50
2019-04-22T16:24:32.011Z,19.70
2019-04-22T16:27:04.683Z,19.70
2019-04-22T16:29:37.101Z,19.80
2019-04-22T16:32:07.362Z,19.90
2019-04-22T16:34:38.165Z,20.20
2019-04-22T16:37:08.455Z,20.20
2019-04-22T16:39:41.949Z,20.60
2019-04-22T16:42:23.986Z,20.70
2019-04-22T16:44:45.956Z,21.00
2019-04-22T16:47:15.543Z,20.90
2019-04-22T16:49:45.664Z,21.00
2019-04-22T16:52:16.255Z,21.10
2019-04-22T16:54:46.483Z,21.30
2019-04-22T16:57:17.760Z,21.40
2019-04-22T16:59:48.879Z,21.60
2019-04-22T17:02:34.546Z,21.40
2019-04-22T17:05:11.424Z,21.40
2019-04-22T17:07:42.469Z,21.30
2019-04-22T17:10:13.671Z,21.40
2019-04-22T17:12:48.919Z,21.60
2019-04-22T17:15:16.819Z,21.70
2019-04-22T17:17:47.374Z,21.90
2019-04-22T17:20:17.419Z,22.10
2019-04-22T17:22:47.480Z,22.30
2019-04-22T17:25:18.261Z,22.50
2019-04-22T17:27:49.788Z,22.70
2019-04-22T17:30:20.184Z,22.90
2019-04-22T17:32:52.461Z,23.10
2019-04-22T17:35:24.118Z,23.60
2019-04-22T17:38:03.766Z,23.90
2019-04-22T17:40:44.905Z,23.70
2019-04-22T17:43:32.584Z,23.70
2019-04-22T17:46:03.121Z,24.10
2019-04-22T17:48:53.432Z,24.30
2019-04-22T17:51:41.207Z,24.70
2019-04-22T17:53:57.771Z,24.70
2019-04-22T17:56:28.243Z,24.90
2019-04-22T17:58:56.802Z,25.10
2019-04-22T18:01:35.614Z,25.60
2019-04-22T18:03:49.626Z,25.80
2019-04-22T18:06:46.618Z,25.80
2019-04-22T18:09:05.311Z,26.10
2019-04-22T18:12:00.223Z,26.30
2019-04-22T18:14:29.974Z,26.50
2019-04-22T18:16:43.417Z,26.70
2019-04-22T18:19:15.704Z,26.80
2019-04-22T18:21:41.079Z,26.90
2019-04-22T18:24:06.879Z,27.30
2019-04-22T18:26:47.604Z,27.30
2019-04-22T18:29:17.449Z,27.40
2019-04-22T18:31:41.180Z,27.70
2019-04-22T18:34:15.840Z,27.90
2019-04-22T18:36:51.044Z,28.10
2019-04-22T18:39:28.546Z,28.40
2019-04-22T18:42:00.398Z,28.40
2019-04-22T18:44:34.768Z,28.70
2019-04-22T18:47:01.310Z,28.60
2019-04-22T18:49:37.587Z,29.00
2019-04-22T18:52:11.787Z,31.10
2019-04-22T18:54:49.829Z,30.00
2019-04-22T18:57:15.626Z,29.50
2019-04-22T18:59:35.547Z,29.60
2019-04-22T19:02:07.797Z,29.70
2019-04-22T19:04:44.638Z,30.00
2019-04-22T19:07:28.710Z,30.60
2019-04-22T19:10:04.853Z,30.20
2019-04-22T19:12:37.007Z,30.40
2019-04-22T19:15:05.441Z,30.40
2019-04-22T19:17:39.212Z,30.50
2019-04-22T19:20:12.785Z,30.80
2019-04-22T19:22:36.050Z,30.90
2019-04-22T19:25:02.988Z,31.20
2019-04-22T19:27:36.020Z,31.30
2019-04-22T19:30:12.349Z,31.50
2019-04-22T19:32:40.150Z,31.60
2019-04-22T19:35:10.883Z,31.90
2019-04-22T19:37:38.132Z,31.90
2019-04-22T19:40:20.840Z,32.20
2019-04-22T19:42:51.839Z,32.40
2019-04-22T19:45:17.345Z,32.60
2019-04-22T19:48:15.809Z,32.80
2019-04-22T19:50:24.593Z,33.00
2019-04-22T19:52:56.751Z,33.40
2019-04-22T19:55:23.433Z,33.70
2019-04-22T19:57:49.052Z,33.70
2019-04-22T20:00:35.025Z,33.90
2019-04-22T20:03:26.937Z,34.40
2019-04-22T20:05:47.918Z,34.20
2019-04-22T20:08:21.502Z,34.40
2019-04-22T20:10:56.024Z,34.50
2019-04-22T20:13:33.524Z,34.80
2019-04-22T20:15:45.956Z,35.20
2019-04-22T20:18:37.310Z,35.20
2019-04-22T20:20:59.651Z,35.40
2019-04-22T20:23:22.463Z,36.50
2019-04-22T20:25:56.276Z,38.30
2019-04-22T20:28:37.887Z,36.70
2019-04-22T20:31:03.318Z,36.90
2019-04-22T20:33:43.195Z,37.80
2019-04-22T20:36:12.587Z,37.90
2019-04-22T20:38:38.778Z,38.30
2019-04-22T20:41:05.671Z,39.40
2019-04-22T20:43:51.445Z,40.80
2019-04-22T20:46:19.151Z,40.50
2019-04-22T20:48:44.113Z,40.50
2019-04-22T20:51:18.360Z,40.70
2019-04-22T20:53:47.928Z,41.50
2019-04-22T20:56:15.982Z,41.70
2019-04-22T20:58:51.837Z,41.50
2019-04-22T21:01:15.786Z,43.90
2019-04-22T21:03:41.633Z,42.00
2019-04-22T21:06:23.287Z,41.90
2019-04-22T21:08:56.571Z,42.10
2019-04-22T21:11:38.569Z,42.30
2019-04-22T21:14:18.440Z,42.30
2019-04-22T21:16:53.001Z,42.30
2019-04-22T21:19:28.019Z,42.40
2019-04-22T21:21:50.249Z,42.50
2019-04-22T21:24:20.665Z,42.40
2019-04-22T21:26:49.829Z,42.50
2019-04-22T21:29:20.510Z,42.90
2019-04-22T21:31:57.947Z,43.20
2019-04-22T21:34:23.320Z,43.30
2019-04-22T21:37:04.310Z,43.70
2019-04-22T21:39:29.323Z,43.70
2019-04-22T21:41:58.844Z,43.40
2019-04-22T21:44:32.106Z,43.60
2019-04-22T21:47:13.018Z,43.60
2019-04-22T21:49:38.927Z,43.70
2019-04-22T21:52:09.833Z,43.50
2019-04-22T21:54:47.134Z,43.40
2019-04-22T21:57:25.005Z,44.50
2019-04-22T21:59:46.287Z,44.00
2019-04-22T22:02:24.838Z,44.40
2019-04-22T22:04:47.438Z,44.10
2019-04-22T22:07:09.784Z,44.30
2019-04-22T22:09:54.243Z,44.30
2019-04-22T22:12:24.304Z,44.40
2019-04-22T22:15:00.449Z,44.70
2019-04-22T22:17:27.260Z,44.90
2019-04-22T22:19:57.964Z,45.00
2019-04-22T22:22:46.183Z,45.20
2019-04-22T22:25:01.460Z,45.90
2019-04-22T22:27:34.260Z,46.60
2019-04-22T22:30:19.249Z,46.00
2019-04-22T22:32:33.710Z,46.00
2019-04-22T22:35:08.426Z,47.00
2019-04-22T22:37:28.192Z,47.60
2019-04-22T22:40:00.475Z,48.50
2019-04-22T22:42:28.792Z,48.50
2019-04-22T22:45:04.010Z,49.70
2019-04-22T22:47:41.042Z,49.60
2019-04-22T22:50:17.580Z,49.70
2019-04-22T22:55:20.140Z,50.00
2019-04-22T22:57:56.440Z,50.20
2019-04-22T23:00:22.221Z,50.40
2019-04-22T23:03:11.058Z,50.70
2019-04-22T23:05:34.038Z,50.80
2019-04-22T23:08:03.985Z,50.40
2019-04-22T23:10:34.239Z,50.40
2019-04-22T23:13:08.499Z,51.00
2019-04-22T23:15:27.775Z,51.30
2019-04-22T23:17:45.780Z,51.20
2019-04-22T23:20:18.561Z,51.10
2019-04-22T23:23:09.052Z,51.30
2019-04-22T23:25:49.951Z,51.30
2019-04-22T23:28:14.586Z,51.10
2019-04-22T23:30:57.139Z,51.00
2019-04-22T23:33:37.852Z,51.10
2019-04-22T23:36:17.608Z,51.40
2019-04-22T23:38:59.214Z,51.60
2019-04-22T23:46:41.383Z,52.10
2019-04-22T23:49:11.716Z,52.70
2019-04-22T23:51:55.657Z,52.50
2019-04-22T23:54:23.900Z,53.60
2019-04-22T23:56:49.316Z,53.80
2019-04-22T23:59:41.377Z,53.70
